Aérodrome :
LOGIN :

S'inscrire | Disclaimer

   EN    FR    IT 

 










Légende :    VFR   VFR Marginal   IFR   IFR Intensif   IFR Très Intensif
Visi : 
Plafond : 
>= 8 km
>= 3000ft
5 à 8 km
1000 à 3000 ft
1500m à 5 km
500 à 1000 ft
800 à 1500m
200 à 500 ft
< 800m
< 200 ft
Symboles :   Orages  Brouillard  Fortes neiges  Fortes précipitations  Vent > 20 kt
SIGMETs :   Divers  Orages  Givrage  Turbulence  Onde Orograph.  Cendres Volcan.






- Altitude de l'aérodrome : 194 ft
- Code IATA : LME


LFRM - Le Mans

DERNIER METAR :
  • 071330Z AUTO 21003KT 170V240 9000 SCT009 BKN018 BKN025 11/10 Q1019 TEMPO 3000 BR BKN007

METARs EXPIRÉS :
  • 071300Z AUTO VRB02KT 9999 -DZ FEW010 BKN027 BKN034 11/10 Q1019 TEMPO 3000 BR BKN007
  • 071230Z AUTO VRB02KT 9999 FEW010 OVC037 11/10 Q1019 TEMPO 3000 BR BKN007
  • 071200Z AUTO VRB03KT 9999 BKN009 BKN017 OVC034 11/10 Q1020 TEMPO 3000 BR
  • 071130Z AUTO 26004KT 170V310 9999 OVC010 11/10 Q1020 TEMPO 3000 BR
  • 071100Z AUTO 25004KT 210V300 9999 BKN008 BKN012 OVC042 11/10 Q1020 TEMPO 3000 BR

TAF TAF LFRM
Valide du 07 à 12h jusqu'au 08 à 12h UTC


071100Z 0712/0812 24003KT 9999 SCT012 BKN040
TEMPO 0712/0715 3000 BR BKN007
BECMG 0722/0724 20012KT
TEMPO 0803/0808 3000 RA BKN006
TEMPO 0807/0811 BKN005



MET'MAP, la Météo Aéronautique d'un coup d'oeil ! - Copyright ORBIFLY Décembre 2007 - Disclaimer

ORBIFLY MET'MAP TEAM :

Programmation & Développement : Alexandra Zaïnal
Sur une idée originale de : Baudouin d'Aumeries
Assistance à la programmation : Marc-Olivier Méhu
Soutien technique & logistique : Manuel Goepfert

Contact : metmap@orbifly.com




SOURCES & CREDITS :

   NOAA